createdAt,value
2022-12-09T00:01:58.669Z,0.75
2022-12-09T00:04:25.263Z,0.62
2022-12-09T00:06:51.981Z,0.67
2022-12-09T00:09:18.712Z,0.46
2022-12-09T00:11:45.264Z,0.40
2022-12-09T00:14:12.545Z,0.33
2022-12-09T00:16:40.024Z,0.40
2022-12-09T00:19:07.433Z,0.25
2022-12-09T00:21:34.806Z,0.22
2022-12-09T00:24:04.491Z,0.18
2022-12-09T00:26:32.067Z,0.06
2022-12-09T00:28:59.183Z,0.09
2022-12-09T00:31:32.374Z,0.12
2022-12-09T00:34:01.895Z,0.17
2022-12-09T00:36:29.458Z,0.11
2022-12-09T00:38:57.518Z,0.12
2022-12-09T00:41:25.148Z,0.20
2022-12-09T00:43:51.959Z,0.20
2022-12-09T00:46:18.938Z,0.17
2022-12-09T00:48:46.121Z,0.21
2022-12-09T00:51:15.638Z,0.27
2022-12-09T00:53:42.716Z,0.33
2022-12-09T00:56:09.707Z,0.34
2022-12-09T00:58:36.320Z,0.30
2022-12-09T01:01:02.725Z,0.26
2022-12-09T01:03:29.883Z,0.20
2022-12-09T01:05:56.533Z,0.09
2022-12-09T01:08:23.197Z,-0.15
2022-12-09T01:10:49.734Z,-0.52
2022-12-09T01:13:16.975Z,-0.57
2022-12-09T01:15:43.856Z,-0.66
2022-12-09T01:18:11.185Z,-0.52
2022-12-09T01:20:38.313Z,-0.48
2022-12-09T01:23:05.285Z,-0.47
2022-12-09T01:25:31.789Z,-0.26
2022-12-09T01:27:58.201Z,-0.14
2022-12-09T01:30:24.805Z,-0.15
2022-12-09T01:32:51.581Z,-0.08
2022-12-09T01:35:18.320Z,0.04
2022-12-09T01:37:44.983Z,0.00
2022-12-09T01:40:16.874Z,-0.10
2022-12-09T01:42:44.229Z,-0.10
2022-12-09T01:45:20.013Z,-0.06
2022-12-09T01:47:48.930Z,-0.03
2022-12-09T01:50:16.807Z,-0.07
2022-12-09T01:52:44.704Z,-0.08
2022-12-09T01:55:11.756Z,-0.03
2022-12-09T01:57:39.147Z,0.11
2022-12-09T02:00:06.944Z,0.33
2022-12-09T02:02:46.224Z,0.30
2022-12-09T02:05:15.338Z,0.37
2022-12-09T02:07:46.150Z,0.38
2022-12-09T02:10:16.190Z,0.24
2022-12-09T02:13:20.357Z,0.20
2022-12-09T02:15:58.900Z,0.35
2022-12-09T02:18:47.117Z,0.42
2022-12-09T02:21:33.596Z,0.43
2022-12-09T02:24:20.144Z,0.47
2022-12-09T02:27:01.007Z,0.34
2022-12-09T02:29:59.769Z,0.21
2022-12-09T02:32:40.494Z,0.24
2022-12-09T02:35:21.906Z,0.25
2022-12-09T02:38:04.825Z,0.37
2022-12-09T02:40:38.668Z,0.43
2022-12-09T02:43:07.890Z,0.37
2022-12-09T02:45:36.613Z,0.26
2022-12-09T02:48:05.353Z,0.18
2022-12-09T02:50:36.144Z,0.18
2022-12-09T02:53:07.826Z,0.14
2022-12-09T02:55:36.813Z,0.12
2022-12-09T02:58:06.789Z,0.19
2022-12-09T03:00:34.964Z,0.39
2022-12-09T03:03:04.012Z,0.37
2022-12-09T03:05:40.017Z,0.43
2022-12-09T03:08:47.513Z,0.46
2022-12-09T03:11:17.257Z,0.42
2022-12-09T03:14:18.837Z,0.35
2022-12-09T03:17:01.343Z,0.34
2022-12-09T03:19:52.602Z,0.47
2022-12-09T03:22:24.851Z,0.41
2022-12-09T03:25:13.470Z,0.29
2022-12-09T03:27:58.973Z,0.30
2022-12-09T03:30:25.809Z,0.29
2022-12-09T03:32:54.771Z,0.41
2022-12-09T03:35:25.398Z,0.24
2022-12-09T03:37:53.230Z,0.07
2022-12-09T03:40:25.789Z,0.02
2022-12-09T03:43:19.168Z,-0.06
2022-12-09T03:45:46.593Z,-0.05
2022-12-09T03:48:13.367Z,0.02
2022-12-09T03:50:51.602Z,0.05
2022-12-09T03:53:33.581Z,0.22
2022-12-09T03:56:28.319Z,0.31
2022-12-09T03:58:57.977Z,0.37
2022-12-09T04:01:26.332Z,0.35
2022-12-09T04:03:55.546Z,0.34
2022-12-09T04:06:23.767Z,0.18
2022-12-09T04:08:50.291Z,0.14
2022-12-09T04:11:17.106Z,0.10
2022-12-09T04:13:43.844Z,0.21
2022-12-09T04:16:10.413Z,0.30
2022-12-09T04:18:37.227Z,0.13
2022-12-09T04:21:09.180Z,0.27
2022-12-09T04:23:40.983Z,0.23
2022-12-09T04:26:14.113Z,0.12
2022-12-09T04:28:40.524Z,0.05
2022-12-09T04:31:11.264Z,0.02
2022-12-09T04:33:38.730Z,0.15
2022-12-09T04:36:07.498Z,0.27
2022-12-09T04:38:34.015Z,0.19
2022-12-09T04:41:01.007Z,0.28
2022-12-09T04:43:27.829Z,0.22
2022-12-09T04:45:54.269Z,0.22
2022-12-09T04:48:21.058Z,0.29
2022-12-09T04:50:47.469Z,0.45
2022-12-09T04:53:13.990Z,0.51
2022-12-09T04:55:40.759Z,0.42
2022-12-09T04:58:07.267Z,0.35
2022-12-09T05:00:33.882Z,0.32
2022-12-09T05:03:00.447Z,0.39
2022-12-09T05:05:27.125Z,0.40
2022-12-09T05:07:54.233Z,0.61
2022-12-09T05:10:20.921Z,0.70
2022-12-09T05:12:47.508Z,0.67
2022-12-09T05:15:14.006Z,0.52
2022-12-09T05:17:40.705Z,0.53
2022-12-09T05:20:09.553Z,0.48
2022-12-09T05:22:36.413Z,0.52
2022-12-09T05:25:03.025Z,0.53
2022-12-09T05:27:29.456Z,0.58
2022-12-09T05:29:55.932Z,0.63
2022-12-09T05:32:22.680Z,0.63
2022-12-09T05:34:49.661Z,0.64
2022-12-09T05:37:16.182Z,0.61
2022-12-09T05:39:43.061Z,0.64
2022-12-09T05:42:09.922Z,0.70
2022-12-09T05:44:36.789Z,0.74
2022-12-09T05:47:03.758Z,0.72
2022-12-09T05:49:30.545Z,0.72
2022-12-09T05:51:57.111Z,0.75
2022-12-09T05:54:23.861Z,0.80
2022-12-09T05:56:50.582Z,0.87
2022-12-09T05:59:17.099Z,0.76
2022-12-09T06:01:43.967Z,0.74
2022-12-09T06:04:10.660Z,0.76
2022-12-09T06:06:38.028Z,0.73
2022-12-09T06:09:08.625Z,0.78
2022-12-09T06:11:35.551Z,0.87
2022-12-09T06:14:02.198Z,0.84
2022-12-09T06:16:29.088Z,0.84
2022-12-09T06:18:56.203Z,0.81
2022-12-09T06:21:23.528Z,0.90
2022-12-09T06:23:51.460Z,0.92
2022-12-09T06:26:24.574Z,1.02
2022-12-09T06:28:52.187Z,0.90
2022-12-09T06:31:19.066Z,0.90
2022-12-09T06:33:54.674Z,0.89
2022-12-09T06:36:23.498Z,1.06
2022-12-09T06:38:50.213Z,1.12
2022-12-09T06:41:17.118Z,1.13
2022-12-09T06:43:44.001Z,1.04
2022-12-09T06:46:12.981Z,1.09
2022-12-09T06:48:40.082Z,1.09
2022-12-09T06:51:06.982Z,1.17
2022-12-09T06:53:33.673Z,1.21
2022-12-09T06:56:09.693Z,1.17
2022-12-09T06:58:38.600Z,1.27
2022-12-09T07:01:14.620Z,1.31
2022-12-09T07:03:43.105Z,1.42
2022-12-09T07:06:25.488Z,1.39
2022-12-09T07:08:52.780Z,1.42
2022-12-09T07:11:20.139Z,1.43
2022-12-09T07:13:47.277Z,1.52
2022-12-09T07:16:14.133Z,1.61
2022-12-09T07:18:40.758Z,1.52
2022-12-09T07:21:12.626Z,1.53
2022-12-09T07:23:39.704Z,1.54
2022-12-09T07:26:07.397Z,1.37
2022-12-09T07:28:35.177Z,1.31
2022-12-09T07:31:02.492Z,1.27
2022-12-09T07:33:29.630Z,1.25
2022-12-09T07:35:58.243Z,1.20
2022-12-09T07:38:26.336Z,1.21
2022-12-09T07:40:53.454Z,1.22
2022-12-09T07:43:19.925Z,1.30
2022-12-09T07:45:46.471Z,1.21
2022-12-09T07:48:13.507Z,1.24
2022-12-09T07:50:40.174Z,1.34
2022-12-09T07:53:06.868Z,1.39
2022-12-09T07:55:34.030Z,1.55
2022-12-09T07:58:00.890Z,1.49
2022-12-09T08:00:27.532Z,1.57
2022-12-09T08:02:54.627Z,1.57
2022-12-09T08:05:21.701Z,1.56
2022-12-09T08:07:48.637Z,1.48
2022-12-09T08:10:15.644Z,1.45
2022-12-09T08:12:42.443Z,1.55
2022-12-09T08:15:09.675Z,1.51
2022-12-09T08:17:36.608Z,1.51
2022-12-09T08:20:03.930Z,1.31
2022-12-09T08:22:30.527Z,1.29
2022-12-09T08:24:57.312Z,1.44
2022-12-09T08:27:24.051Z,1.58
2022-12-09T08:29:50.845Z,1.63
2022-12-09T08:32:18.116Z,1.67
2022-12-09T08:34:45.866Z,1.63
2022-12-09T08:37:12.738Z,1.56
2022-12-09T08:39:39.284Z,1.42
2022-12-09T08:42:06.171Z,1.52
2022-12-09T08:44:32.986Z,1.49
2022-12-09T08:46:59.531Z,1.42
2022-12-09T08:49:28.138Z,1.38
2022-12-09T08:51:54.891Z,1.50
2022-12-09T08:54:21.577Z,1.47
2022-12-09T08:56:50.227Z,1.49
2022-12-09T08:59:17.856Z,1.62
2022-12-09T09:01:45.678Z,1.60
2022-12-09T09:04:15.338Z,1.65
2022-12-09T09:06:45.306Z,1.65
2022-12-09T09:09:14.316Z,1.67
2022-12-09T09:11:42.222Z,1.68
2022-12-09T09:14:10.918Z,1.66
2022-12-09T09:16:40.078Z,1.66
2022-12-09T09:19:07.884Z,1.65
2022-12-09T09:21:35.715Z,1.49
2022-12-09T09:24:07.329Z,1.64
2022-12-09T09:26:34.422Z,1.46
2022-12-09T09:29:00.988Z,1.58
2022-12-09T09:31:27.559Z,1.44
2022-12-09T09:33:54.222Z,1.32
2022-12-09T09:36:23.783Z,1.48
2022-12-09T09:38:53.129Z,1.46
2022-12-09T09:41:25.637Z,1.50
2022-12-09T09:43:53.291Z,1.50
2022-12-09T09:46:41.541Z,1.48
2022-12-09T09:49:15.546Z,1.43
2022-12-09T09:51:42.661Z,1.00
2022-12-09T09:54:13.277Z,0.76
2022-12-09T09:56:55.065Z,0.89
2022-12-09T09:59:22.133Z,1.07
2022-12-09T10:02:13.046Z,1.19
2022-12-09T10:05:01.188Z,1.25
2022-12-09T10:07:35.495Z,1.22
2022-12-09T10:10:38.698Z,1.32
2022-12-09T10:13:34.266Z,1.22
2022-12-09T10:16:26.537Z,1.23
2022-12-09T10:19:41.268Z,1.02
2022-12-09T10:22:13.677Z,1.26
2022-12-09T10:24:47.732Z,1.40
2022-12-09T10:27:38.293Z,1.32
2022-12-09T10:30:14.403Z,1.30
2022-12-09T10:32:42.145Z,1.45
2022-12-09T10:35:21.778Z,1.47
2022-12-09T10:37:52.606Z,1.51
2022-12-09T10:40:49.908Z,1.52
2022-12-09T10:43:44.143Z,1.49
2022-12-09T10:46:21.896Z,1.54
2022-12-09T10:48:49.767Z,1.62
2022-12-09T10:51:25.313Z,1.67
2022-12-09T10:54:22.227Z,1.64
2022-12-09T10:57:21.452Z,1.71
2022-12-09T11:00:34.945Z,1.59
2022-12-09T11:03:01.700Z,1.60
2022-12-09T11:05:33.885Z,1.56
2022-12-09T11:08:00.997Z,1.51
2022-12-09T11:10:29.838Z,1.48
2022-12-09T11:13:03.804Z,1.51
2022-12-09T11:15:37.466Z,1.68
2022-12-09T11:18:07.892Z,1.81
2022-12-09T11:20:35.975Z,1.77
2022-12-09T11:23:15.235Z,1.87
2022-12-09T11:26:06.164Z,1.60
2022-12-09T11:28:35.906Z,1.29
2022-12-09T11:33:58.434Z,1.18
2022-12-09T11:36:30.992Z,1.29
2022-12-09T11:39:19.601Z,1.07
2022-12-09T11:42:16.447Z,1.32
2022-12-09T11:44:56.723Z,1.45
2022-12-09T11:47:50.463Z,1.46
2022-12-09T11:50:25.039Z,1.59
2022-12-09T11:53:13.113Z,1.67
2022-12-09T11:56:20.114Z,1.79
2022-12-09T11:58:59.474Z,1.70
2022-12-09T12:01:45.636Z,1.84
2022-12-09T12:04:16.583Z,1.81
2022-12-09T12:06:51.605Z,1.55
2022-12-09T12:09:24.946Z,1.45
2022-12-09T12:12:04.954Z,1.38
2022-12-09T12:14:32.448Z,1.05
2022-12-09T12:17:12.427Z,1.03
2022-12-09T12:19:40.835Z,1.21
2022-12-09T12:22:16.081Z,1.44
2022-12-09T12:24:57.763Z,1.60
2022-12-09T12:28:01.892Z,1.58
2022-12-09T12:30:40.867Z,1.29
2022-12-09T12:36:43.637Z,1.01
2022-12-09T12:39:22.437Z,0.88
2022-12-09T12:42:19.922Z,0.77
2022-12-09T12:45:34.620Z,0.86
2022-12-09T12:48:16.044Z,1.01
2022-12-09T12:51:19.379Z,1.03
2022-12-09T12:54:11.406Z,0.78
2022-12-09T12:56:47.290Z,0.68
2022-12-09T12:59:35.763Z,0.75
2022-12-09T13:02:28.321Z,0.97
2022-12-09T13:05:03.348Z,1.09
2022-12-09T13:07:41.396Z,1.05
2022-12-09T13:10:40.877Z,1.21
2022-12-09T13:13:34.382Z,1.42
2022-12-09T13:16:08.078Z,1.19
2022-12-09T13:18:38.729Z,1.00
2022-12-09T13:21:06.803Z,1.01
2022-12-09T13:23:59.677Z,0.95
2022-12-09T13:26:48.877Z,0.89
2022-12-09T13:29:43.401Z,1.03
2022-12-09T13:32:39.872Z,1.07
2022-12-09T13:35:35.277Z,1.04
2022-12-09T13:38:01.962Z,0.98
2022-12-09T13:40:37.615Z,1.11
2022-12-09T13:43:03.949Z,1.27
2022-12-09T13:45:42.867Z,1.25
2022-12-09T13:48:16.860Z,1.30
2022-12-09T13:50:51.285Z,1.17
2022-12-09T13:53:20.390Z,1.07
2022-12-09T13:55:52.949Z,1.11
2022-12-09T13:58:45.304Z,0.89
2022-12-09T14:01:11.634Z,1.16
2022-12-09T14:03:48.966Z,1.18
2022-12-09T14:06:26.342Z,1.33
2022-12-09T14:08:57.293Z,1.38
2022-12-09T14:11:47.052Z,1.47
2022-12-09T14:14:25.534Z,1.49
2022-12-09T14:17:00.525Z,1.44
2022-12-09T14:19:31.459Z,1.55
2022-12-09T14:22:17.041Z,1.44
2022-12-09T14:24:54.176Z,1.53
2022-12-09T14:27:30.770Z,1.51
2022-12-09T14:30:00.249Z,1.34
2022-12-09T14:32:29.225Z,1.34
2022-12-09T14:35:10.624Z,1.34
2022-12-09T14:37:53.778Z,1.42
2022-12-09T14:40:37.237Z,1.36
2022-12-09T14:43:35.424Z,1.40
2022-12-09T14:46:04.955Z,1.27
2022-12-09T14:48:35.165Z,1.25
2022-12-09T14:51:26.242Z,1.23
2022-12-09T14:54:00.097Z,1.04
2022-12-09T14:56:28.349Z,1.16
2022-12-09T14:58:59.540Z,1.28
2022-12-09T15:01:26.306Z,1.21
2022-12-09T15:03:59.332Z,1.14
2022-12-09T15:06:26.971Z,1.08
2022-12-09T15:08:56.547Z,1.08
2022-12-09T15:11:33.468Z,0.97
2022-12-09T15:14:22.141Z,0.99
2022-12-09T15:16:50.922Z,1.06
2022-12-09T15:19:51.093Z,1.01
2022-12-09T15:22:20.695Z,1.00
2022-12-09T15:24:50.680Z,0.98
2022-12-09T15:27:20.481Z,0.81
2022-12-09T15:29:46.996Z,0.93
2022-12-09T15:32:20.793Z,0.84
2022-12-09T15:34:47.246Z,0.54
2022-12-09T15:37:15.853Z,0.71
2022-12-09T15:39:55.030Z,0.64
2022-12-09T15:42:27.046Z,0.59
2022-12-09T15:45:08.621Z,0.50
2022-12-09T15:47:39.029Z,0.35
2022-12-09T15:50:26.623Z,0.40
2022-12-09T15:53:12.442Z,0.11
2022-12-09T15:55:50.410Z,0.18
2022-12-09T15:58:21.543Z,0.30
2022-12-09T16:00:48.993Z,0.34
2022-12-09T16:03:25.624Z,0.39
2022-12-09T16:05:59.376Z,0.33
2022-12-09T16:08:35.366Z,0.25
2022-12-09T16:11:01.878Z,0.23
2022-12-09T16:13:28.276Z,0.15
2022-12-09T16:15:56.947Z,0.22
2022-12-09T16:18:27.274Z,0.18
2022-12-09T16:21:00.161Z,0.28
2022-12-09T16:23:27.843Z,0.18
2022-12-09T16:26:06.615Z,0.30
2022-12-09T16:28:33.701Z,0.33
2022-12-09T16:31:02.814Z,0.29
2022-12-09T16:33:33.963Z,0.20
2022-12-09T16:36:04.999Z,0.13
2022-12-09T16:38:38.555Z,0.23
2022-12-09T16:41:08.779Z,-0.07
2022-12-09T16:43:35.885Z,-0.08
2022-12-09T16:46:28.157Z,-0.24
2022-12-09T16:48:54.572Z,-0.34
2022-12-09T16:51:24.720Z,-0.21
2022-12-09T16:53:52.736Z,-0.13
2022-12-09T16:56:29.412Z,-0.07
2022-12-09T16:58:57.129Z,-0.01
2022-12-09T17:01:27.630Z,-0.15
2022-12-09T17:04:19.196Z,-0.24
2022-12-09T17:06:46.026Z,-0.31
2022-12-09T17:09:13.298Z,-0.27
2022-12-09T17:11:45.410Z,-0.28
2022-12-09T17:14:14.954Z,-0.30
2022-12-09T17:16:41.409Z,-0.54
2022-12-09T17:19:07.890Z,-0.37
2022-12-09T17:21:34.308Z,-0.15
2022-12-09T17:24:00.703Z,-0.10
2022-12-09T17:26:27.114Z,0.08
2022-12-09T17:28:58.293Z,0.26
2022-12-09T17:31:28.375Z,0.16
2022-12-09T17:33:56.467Z,0.33
2022-12-09T17:36:23.013Z,0.14
2022-12-09T17:38:49.387Z,0.04
2022-12-09T17:41:20.398Z,0.18
2022-12-09T17:43:46.930Z,0.13
2022-12-09T17:46:13.954Z,0.07
2022-12-09T17:48:41.662Z,-0.01
2022-12-09T17:51:10.692Z,-0.16
2022-12-09T17:53:39.038Z,-0.10
2022-12-09T17:56:13.390Z,-0.09
2022-12-09T17:58:40.765Z,-0.11
2022-12-09T18:01:19.784Z,-0.20
2022-12-09T18:03:56.054Z,-0.19
2022-12-09T18:06:27.162Z,-0.23
2022-12-09T18:08:54.012Z,-0.16
2022-12-09T18:11:21.897Z,-0.15
2022-12-09T18:13:50.059Z,-0.31
2022-12-09T18:16:17.341Z,-0.35
2022-12-09T18:18:44.153Z,-0.32
2022-12-09T18:21:15.636Z,-0.27
2022-12-09T18:23:42.925Z,-0.32
2022-12-09T18:26:12.257Z,-0.45
2022-12-09T18:28:40.020Z,-0.46
2022-12-09T18:31:08.257Z,-0.44
2022-12-09T18:33:36.082Z,-0.44
2022-12-09T18:36:07.023Z,-0.31
2022-12-09T18:38:33.449Z,-0.51
2022-12-09T18:41:02.789Z,-0.46
2022-12-09T18:43:31.095Z,-0.40
2022-12-09T18:46:02.054Z,-0.27
2022-12-09T18:48:28.563Z,-0.40
2022-12-09T18:50:54.942Z,-0.34
2022-12-09T18:53:21.347Z,-0.41
2022-12-09T18:55:47.762Z,-0.26
2022-12-09T18:58:14.392Z,-0.33
2022-12-09T19:00:40.875Z,-0.39
2022-12-09T19:03:07.287Z,-0.47
2022-12-09T19:05:38.273Z,-0.54
2022-12-09T19:08:06.670Z,-0.42
2022-12-09T19:10:33.732Z,-0.48
2022-12-09T19:13:00.156Z,-0.37
2022-12-09T19:15:26.637Z,-0.37
2022-12-09T19:17:53.182Z,-0.40
2022-12-09T19:20:19.626Z,-0.47
2022-12-09T19:22:46.029Z,-0.43
2022-12-09T19:25:12.677Z,-0.39
2022-12-09T19:27:39.081Z,-0.37
2022-12-09T19:30:06.491Z,-0.28
2022-12-09T19:32:53.896Z,-0.22
2022-12-09T19:35:19.457Z,-0.49
2022-12-09T19:37:45.903Z,-0.37
2022-12-09T19:40:12.613Z,-0.46
2022-12-09T19:42:39.741Z,-0.53
2022-12-09T19:45:10.567Z,-0.67
2022-12-09T19:47:40.216Z,-0.54
2022-12-09T19:50:07.475Z,-0.42
2022-12-09T19:52:34.153Z,-0.44
2022-12-09T19:55:00.566Z,-0.65
2022-12-09T19:57:27.099Z,-0.58
2022-12-09T19:59:53.890Z,-0.52
2022-12-09T20:02:20.588Z,-0.48
2022-12-09T20:04:49.232Z,-0.46
2022-12-09T20:07:17.263Z,-0.51
2022-12-09T20:09:43.828Z,-0.57
2022-12-09T20:12:10.414Z,-0.62
2022-12-09T20:14:37.008Z,-0.60
2022-12-09T20:17:03.492Z,-0.56
2022-12-09T20:19:31.424Z,-0.46
2022-12-09T20:21:58.363Z,-0.48
2022-12-09T20:24:25.209Z,-0.48
2022-12-09T20:26:51.854Z,-0.56
2022-12-09T20:29:18.327Z,-0.85
2022-12-09T20:31:44.845Z,-0.80
2022-12-09T20:34:13.765Z,-0.88
2022-12-09T20:36:42.177Z,-0.85
2022-12-09T20:39:16.138Z,-0.92
2022-12-09T20:41:43.664Z,-0.92
2022-12-09T20:44:11.957Z,-0.75
2022-12-09T20:46:39.945Z,-0.71
2022-12-09T20:49:06.587Z,-0.75
2022-12-09T20:51:36.128Z,-0.78
2022-12-09T20:54:02.771Z,-0.64
2022-12-09T20:56:30.014Z,-0.78
2022-12-09T20:58:57.217Z,-0.67
2022-12-09T21:01:25.266Z,-0.59
2022-12-09T21:03:53.641Z,-0.72
2022-12-09T21:06:21.590Z,-0.56
2022-12-09T21:08:48.128Z,-0.67
2022-12-09T21:11:23.489Z,-0.53
2022-12-09T21:13:57.965Z,-0.64
2022-12-09T21:16:27.780Z,-0.55
2022-12-09T21:18:56.989Z,-0.62
2022-12-09T21:21:25.082Z,-0.59
2022-12-09T21:23:54.245Z,-0.65
2022-12-09T21:26:23.559Z,-0.62
2022-12-09T21:28:51.097Z,-0.64
2022-12-09T21:31:27.075Z,-0.60
2022-12-09T21:33:55.693Z,-0.49
2022-12-09T21:36:24.869Z,-0.58
2022-12-09T21:38:52.154Z,-0.54
2022-12-09T21:41:21.012Z,-0.47
2022-12-09T21:43:47.940Z,-0.42
2022-12-09T21:46:20.636Z,-0.45
2022-12-09T21:48:52.046Z,-0.42
2022-12-09T21:51:19.678Z,-0.36
2022-12-09T21:53:46.124Z,-0.34
2022-12-09T21:56:32.860Z,-0.32
2022-12-09T21:59:00.091Z,-0.46
2022-12-09T22:01:32.555Z,-0.34
2022-12-09T22:04:00.616Z,-0.24
2022-12-09T22:06:28.282Z,-0.20
2022-12-09T22:08:55.098Z,-0.09
2022-12-09T22:11:24.458Z,-0.23
2022-12-09T22:13:52.064Z,-0.16
2022-12-09T22:16:23.648Z,-0.19
2022-12-09T22:18:53.233Z,-0.08
2022-12-09T22:21:26.068Z,-0.10
2022-12-09T22:23:58.536Z,-0.23
2022-12-09T22:26:25.865Z,-0.21
2022-12-09T22:28:53.423Z,-0.30
2022-12-09T22:31:26.062Z,-0.25
2022-12-09T22:33:55.037Z,-0.28
2022-12-09T22:36:22.603Z,-0.20
2022-12-09T22:38:49.042Z,-0.23
2022-12-09T22:41:18.485Z,-0.32
2022-12-09T22:43:48.118Z,-0.35
2022-12-09T22:46:20.619Z,-0.27
2022-12-09T22:48:48.274Z,-0.20
2022-12-09T22:51:18.092Z,-0.15
2022-12-09T22:53:44.881Z,-0.15
2022-12-09T22:56:12.410Z,-0.18
2022-12-09T22:58:39.637Z,-0.15
2022-12-09T23:01:17.889Z,-0.13
2022-12-09T23:03:44.638Z,-0.13
2022-12-09T23:06:12.246Z,-0.10
2022-12-09T23:08:40.195Z,-0.17
2022-12-09T23:11:10.511Z,-0.07
2022-12-09T23:13:40.960Z,-0.02
2022-12-09T23:16:09.112Z,-0.03
2022-12-09T23:18:36.128Z,-0.03
2022-12-09T23:21:04.415Z,-0.01
2022-12-09T23:23:31.081Z,-0.09
2022-12-09T23:26:15.773Z,-0.15
2022-12-09T23:28:44.891Z,-0.18
2022-12-09T23:31:13.527Z,-0.31
2022-12-09T23:33:41.170Z,-0.35
2022-12-09T23:36:13.478Z,-0.33
2022-12-09T23:38:39.916Z,-0.34
2022-12-09T23:41:06.303Z,-0.24
2022-12-09T23:43:34.254Z,-0.19
2022-12-09T23:46:01.774Z,-0.16
2022-12-09T23:48:30.861Z,-0.25
2022-12-09T23:50:57.750Z,-0.33
2022-12-09T23:53:26.629Z,-0.23
2022-12-09T23:55:53.010Z,-0.25
2022-12-09T23:58:19.404Z,-0.31
